Station: Mackay

  Atmospheric Gas Attenuation - ITU Rec 676-11   --------------- db/100km ---------------
Date Time Temp RH % AH g/m3 Dew Point Wind Direction Speed kph Gust kph Barometer mB Rainfall Since 9am 24GHz 47GHz 76GHz 122GHz 134GHz 241GHz
27 02:30 24.1 91 19.91 22.5 9 13 1006.4 8.4 43.0 41.9 82.1 217.3 240.8 836.3
27 02:20 25 90 20.72 23.2 11 15 1006.4 8.4 44.7 43.1 85.1 225.2 250.8 871.1
27 02:10 25.3 88 20.6 23.2 13 15 1006.4 8.4 44.4 42.7 84.1 222.7 247.9 861.0
27 02:00 25.2 89 20.72 23.3 13 20 1006.5 8.4 44.7 43.0 84.8 224.6 250.1 868.9
27 01:50 25.3 92 21.54 23.9 7 9 1006.6 8.4 46.4 44.6 88.8 235.1 263.1 913.8
27 01:40 25.3 92 21.54 23.9 11 17 1006.8 8.4 46.4 44.6 88.8 235.1 263.1 913.9
27 01:30 25.3 93 21.77 24.1 11 17 1006.9 8.4 46.9 45.0 90.0 238.2 266.9 927.1
27 01:20 25.3 93 21.77 24.1 11 15 1007 8.4 46.9 45.0 90.0 238.3 266.9 927.1
27 01:10 25 93 21.41 23.8 9 13 1007 8.4 46.1 44.5 88.5 234.4 262.1 910.3
27 01:00 24.9 93 21.29 23.7 9 15 1007 8.2 45.9 44.3 88.0 233.1 260.5 904.8
27 00:50 24.9 94 21.52 23.9 9 11 1007.2 8.2 46.4 44.8 89.2 236.2 264.3 918.0
27 00:40 24.9 94 21.52 23.9 9 13 1007.4 8.2 46.4 44.8 89.2 236.3 264.3 918.1
27 00:30 24.9 95 21.75 24 9 17 1007.6 8.2 46.9 45.2 90.4 239.4 268.1 931.3
27 00:20 24.8 94 21.4 23.8 7 11 1007.9 8 46.1 44.6 88.8 235.0 262.8 912.8
27 00:10 24.7 92 20.82 23.3 11 15 1008.1 8 44.9 43.5 86.0 227.7 253.7 881.3
27 00:00 24.6 93 20.93 23.4 13 19 1008.2 7.6 45.2 43.8 86.7 229.5 255.9 888.7
26 23:50 24.4 92 20.47 23 13 17 1008.5 7.4 44.2 43.0 84.6 224.0 249.1 865.3
26 23:40 23.9 89 19.25 22 9 13 1008.7 7.2 41.6 40.9 79.2 209.7 231.3 803.4
26 23:30 24.3 93 20.58 23.1 9 13 1008.9 7.2 44.4 43.3 85.3 225.9 251.3 872.9
26 23:20 24.2 92 20.24 22.8 9 13 1009.1 7.2 43.7 42.7 83.8 221.7 246.2 855.1
26 23:10 24.1 92 20.13 22.7 11 15 1009.4 7 43.5 42.5 83.4 220.6 244.8 850.3
26 23:00 24 96 20.89 23.3 13 20 1009.6 7 45.1 44.1 87.3 231.0 257.5 894.4
26 22:50 24 97 21.1 23.5 11 15 1009.7 6.8 45.6 44.5 88.3 233.9 261.0 906.5
26 22:40 23.9 97 20.98 23.4 7 9 1009.7 6.6 45.3 44.3 87.9 232.6 259.4 900.9
26 22:30 23.8 97 20.86 23.3 7 13 1009.7 6 45.1 44.1 87.4 231.3 257.8 895.2
26 22:20 23.8 97 20.86 23.3 6 7 1009.7 5.8 45.1 44.1 87.4 231.3 257.8 895.2
26 22:10 23.7 96 20.53 23 7 9 1009.7 5.6 44.4 43.5 85.8 227.2 252.7 877.6
26 22:00 23.8 96 20.65 23.1 11 17 1009.8 4.8 44.6 43.7 86.3 228.5 254.3 883.3
26 21:50 24.2 98 21.56 23.9 13 20 1009.8 4.4 46.5 45.3 90.4 239.4 267.9 930.5
26 21:40 24.2 98 21.56 23.9 9 13 1009.8 3.8 46.5 45.3 90.4 239.4 267.9 930.5
26 21:30 24 97 21.1 23.5 9 15 1009.7 3.6 45.6 44.5 88.3 233.9 261.0 906.5
26 21:20 23.7 95 20.32 22.9 7 9 1009.7 3.4 43.9 43.1 84.8 224.4 249.3 865.7
26 21:10 23.6 95 20.2 22.8 7 11 1009.7 3.4 43.7 42.9 84.3 223.1 247.7 860.1
26 21:00 23.5 94 19.88 22.5 9 15 1009.6 3.2 43.0 42.3 82.8 219.1 242.8 843.2
26 20:50 23.6 93 19.78 22.4 9 13 1009.4 3.2 42.8 42.1 82.2 217.5 240.8 836.4
26 20:40 24.4 93 20.7 23.2 11 15 1009.5 2.6 44.7 43.5 85.9 227.3 253.0 878.9
26 20:30 24.2 92 20.24 22.8 9 15 1009.2 2.2 43.7 42.7 83.8 221.7 246.2 855.2
26 20:20 23.6 91 19.35 22 9 11 1009 2 41.9 41.2 80.1 211.8 233.9 812.3
26 20:10 23.4 91 19.13 21.8 6 7 1009 2 41.4 40.9 79.2 209.6 231.1 802.3
26 20:00 23.4 91 19.13 21.8 9 15 1008.9 2 41.4 40.9 79.2 209.6 231.0 802.3
26 19:50 23.4 88 18.5 21.3 13 17 1008.9 2 40.1 39.7 76.2 201.5 221.1 767.9
26 19:40 23.7 88 18.82 21.6 13 20 1008.8 1.6 40.7 40.1 77.4 204.7 225.2 782.1
26 19:30 24.5 83 18.58 21.4 11 20 1008.6 1.4 40.1 39.3 75.4 199.5 219.1 760.9
26 19:20 25.1 84 19.45 22.2 15 22 1008.5 1.2 41.9 40.6 78.9 208.9 230.7 801.4
26 19:10 25.3 85 19.9 22.6 17 20 1008.4 1.2 42.9 41.4 80.9 214.0 237.1 823.6
26 19:00 25.4 81 19.07 21.9 13 30 1008.3 1.2 41.1 39.8 76.8 203.2 223.9 777.7
26 18:50 25.9 79 19.13 22 22 30 1008.1 0.8 41.2 39.6 76.6 202.6 223.3 775.7
26 18:40 26.4 80 19.92 22.7 19 22 1007.9 0.8 42.8 40.9 79.7 211.1 233.8 812.5
26 18:30 26.7 76 19.24 22.1 13 22 1007.7 0.6 41.3 39.4 76.2 201.8 222.5 773.1
26 18:20 26.7 74 18.73 21.7 17 20 1007.5 0.6 40.2 38.5 73.9 195.5 214.8 746.3
26 18:10 26.6 80 20.14 22.9 19 20 1007.4 0.6 43.2 41.2 80.5 213.2 236.5 821.9
26 18:00 26.6 71 17.87 20.9 17 26 1007.2 0.6 38.4 37.0 70.1 185.3 202.3 702.9
26 17:50 26.2 77 18.96 21.8 17 22 1007.1 0.6 40.8 39.1 75.4 199.5 219.7 763.1
26 17:40 26.3 70 17.33 20.4 15 19 1007 0.6 37.3 36.1 67.9 179.6 195.3 678.2
26 17:30 26.3 76 18.81 21.7 17 28 1006.9 0.6 40.5 38.8 74.6 197.4 217.1 754.1
26 17:20 26.2 84 20.68 23.3 15 17 1006.9 0.6 44.4 42.4 83.5 221.2 246.2 855.4
26 17:10 26.5 83 20.78 23.4 19 26 1006.8 0.6 44.6 42.4 83.7 221.5 246.8 857.4
26 17:00 26.4 85 21.16 23.7 17 28 1006.7 0.4 45.4 43.2 85.6 226.7 253.1 879.4
26 16:50 26.3 87 21.54 24 13 15 1006.6 0.4 46.3 44.0 87.6 232.0 259.5 901.6
26 16:40 26.4 86 21.41 23.9 15 20 1006.6 0.4 46.0 43.7 86.9 230.0 257.1 893.2
26 16:30 26.5 85 21.28 23.8 13 20 1006.6 0 45.7 43.4 86.1 228.0 254.6 884.8
26 16:20 26.6 84 21.15 23.7 13 17 1006.7 0 45.4 43.1 85.4 226.0 252.3 876.5
26 16:10 26.8 80 20.36 23.1 15 19 1006.7 0 43.7 41.5 81.3 215.3 239.2 831.1
26 16:00 27 79 20.33 23 17 26 1006.7 0 43.6 41.3 81.0 214.4 238.1 827.3
26 15:50 27.4 77 20.26 23 17 22 1006.6 0 43.4 41.0 80.2 212.3 235.7 819.2
26 15:40 27.5 79 20.9 23.5 19 26 1006.6 0 44.8 42.1 83.1 220.1 245.3 852.4
26 15:30 27.4 78 20.52 23.2 15 24 1006.5 0 44.0 41.5 81.4 215.6 239.7 833.0
26 15:20 27.5 79 20.9 23.5 15 20 1006.5 0 44.8 42.1 83.1 220.1 245.3 852.4
26 15:10 27.4 80 21.05 23.6 13 17 1006.6 0 45.1 42.5 84.0 222.3 248.0 861.7
26 15:00 27.5 78 20.64 23.3 11 19 1006.7 0 44.2 41.6 81.9 216.8 241.3 838.5
26 14:50 27.6 77 20.49 23.2 15 20 1006.7 0 43.9 41.3 81.1 214.7 238.6 829.3
26 14:40 27.6 77 20.49 23.2 17 20 1006.7 0 43.9 41.3 81.1 214.7 238.6 829.3
26 14:30 27.8 77 20.71 23.4 15 22 1006.7 0 44.3 41.6 81.9 216.9 241.4 838.9
26 14:20 27.8 75 20.17 23 15 20 1006.7 0 43.2 40.6 79.4 210.1 233.1 810.1
26 14:10 28 73 19.85 22.7 17 22 1006.7 0 42.5 39.9 77.7 205.6 227.7 791.2
26 14:00 28.2 72 19.8 22.7 17 28 1006.8 0 42.4 39.7 77.3 204.5 226.3 786.5
26 13:50 28.4 71 19.74 22.6 20 26 1006.9 0 42.2 39.5 76.8 203.2 224.8 781.4
26 13:40 28.8 71 20.17 23.2 20 28 1006.9 0 43.1 40.1 78.3 207.4 230.1 799.6
26 13:30 28.9 72 20.57 23.3 17 30 1006.9 0 43.9 40.8 80.1 212.0 235.8 819.5
26 13:20 28 67 18.22 21.5 13 24 1007 0 39.0 37.0 70.3 186.1 203.6 707.6
26 13:10 28.4 70 19.46 22.4 20 26 1007 0 41.6 39.0 75.5 199.9 220.7 767.0
26 13:00 29.1 69 19.93 22.8 19 33 1007.1 0 42.5 39.6 77.0 203.7 225.6 784.1
26 12:50 29.1 70 20.22 23.1 19 24 1007.2 0 43.1 40.1 78.3 207.2 229.9 799.2
26 12:40 29.1 72 20.8 23.5 17 24 1007.2 0 44.4 41.2 81.0 214.4 238.7 829.6
26 12:30 28.4 73 20.29 23.1 20 32 1007.4 0 43.4 40.6 79.3 210.1 233.2 810.4
26 12:20 28.3 72 19.91 22.8 19 24 1007.5 0 42.6 39.9 77.7 205.7 227.8 791.6
26 12:10 28.5 73 20.41 23.2 20 28 1007.7 0 43.6 40.8 79.8 211.3 234.7 815.8
26 12:00 28.8 71 20.17 23 17 26 1007.8 0 43.1 40.2 78.4 207.5 230.2 800.1
26 11:50 29 70 20.11 23 17 20 1007.8 0 42.9 40.0 77.9 206.3 228.7 794.9
26 11:40 29.7 71 21.19 23.9 17 20 1007.8 0 45.1 41.6 82.2 217.6 242.8 843.9
26 11:30 29.6 71 21.07 23.8 17 28 1007.9 0 44.9 41.5 81.7 216.4 241.3 838.7
26 11:20 29.4 69 20.26 23.3 19 22 1008.1 0 43.2 40.1 78.2 207.1 229.7 798.6
26 11:10 29.5 71 20.96 23.7 13 17 1008.1 0 44.6 41.3 81.3 215.4 240.0 834.2
26 11:00 29.1 70 20.22 23.1 17 28 1008.3 0 43.1 40.1 78.4 207.4 230.1 799.8
26 10:50 29.2 71 20.62 23.4 17 24 1008.4 0 44.0 40.8 80.1 212.1 235.8 819.7
26 10:40 29 71 20.4 23.2 20 26 1008.3 0 43.5 40.5 79.3 209.9 233.1 810.3
26 10:30 29 72 20.68 23.4 19 26 1008.3 0 44.1 41.0 80.6 213.3 237.3 825.0
26 10:20 28.4 75 20.85 23.5 20 26 1008.4 0 44.5 41.7 82.0 217.2 241.9 840.7
26 10:10 27.6 75 19.95 22.8 22 32 1008.4 0 42.7 40.4 78.7 208.2 230.7 801.5
26 10:00 27.9 75 20.29 23.1 15 26 1008.4 0 43.4 40.9 79.9 211.6 234.9 816.3

Last Refresh: 27-Feb-2021 03:11:00

Most of the information presented on this site is sourced from the Bureau of Meteorology.  Copyright in all material sourced from the Bureau of Meteorology resides with the Commonwealth of Australia.